createdAt,value
2022-07-29T00:00:01.523Z,68.07
2022-07-29T00:03:04.318Z,67.80
2022-07-29T00:06:07.372Z,67.29
2022-07-29T00:09:10.165Z,66.89
2022-07-29T00:12:13.105Z,66.73
2022-07-29T00:15:16.559Z,66.38
2022-07-29T00:18:19.408Z,66.08
2022-07-29T00:21:21.956Z,66.34
2022-07-29T00:24:24.789Z,66.13
2022-07-29T00:27:27.255Z,65.85
2022-07-29T00:30:30.251Z,65.74
2022-07-29T00:33:32.774Z,65.55
2022-07-29T00:36:35.547Z,65.52
2022-07-29T00:39:38.037Z,65.33
2022-07-29T00:42:58.641Z,65.34
2022-07-29T00:46:02.489Z,65.46
2022-07-29T00:49:08.568Z,65.76
2022-07-29T00:52:12.460Z,66.08
2022-07-29T00:55:17.032Z,66.17
2022-07-29T00:58:19.672Z,66.55
2022-07-29T01:01:22.604Z,66.67
2022-07-29T01:04:25.411Z,66.62
2022-07-29T01:07:28.679Z,67.06
2022-07-29T01:10:31.502Z,67.27
2022-07-29T01:13:34.445Z,67.50
2022-07-29T01:16:45.744Z,67.94
2022-07-29T01:20:13.497Z,68.39
2022-07-29T01:23:21.920Z,68.39
2022-07-29T01:26:48.887Z,68.82
2022-07-29T01:43:14.484Z,67.67
2022-07-29T01:46:22.717Z,67.67
2022-07-29T01:49:30.078Z,69.31
2022-07-29T01:52:39.443Z,69.54
2022-07-29T01:55:45.726Z,69.35
2022-07-29T01:58:49.431Z,69.46
2022-07-29T02:01:54.653Z,69.27
2022-07-29T02:04:58.934Z,69.18
2022-07-29T02:08:02.361Z,69.59
2022-07-29T02:11:06.083Z,70.19
2022-07-29T02:14:09.920Z,70.20
2022-07-29T02:17:13.704Z,70.23
2022-07-29T02:20:17.258Z,70.33
2022-07-29T02:23:22.283Z,70.02
2022-07-29T02:26:25.926Z,69.77
2022-07-29T02:29:31.354Z,69.76
2022-07-29T02:32:36.539Z,69.68
2022-07-29T02:35:39.790Z,69.72
2022-07-29T02:38:52.802Z,69.84
2022-07-29T02:42:04.254Z,69.80
2022-07-29T02:45:07.373Z,69.64
2022-07-29T02:48:16.360Z,69.57
2022-07-29T02:51:44.006Z,69.93
2022-07-29T02:54:55.107Z,69.76
2022-07-29T02:58:07.661Z,69.79
2022-07-29T03:01:21.707Z,70.02
2022-07-29T03:04:26.788Z,69.85
2022-07-29T03:07:30.561Z,69.95
2022-07-29T03:10:33.640Z,70.07
2022-07-29T03:13:36.940Z,70.33
2022-07-29T03:16:41.326Z,70.67
2022-07-29T03:19:44.455Z,70.48
2022-07-29T03:22:48.161Z,70.67
2022-07-29T03:25:51.688Z,70.58
2022-07-29T03:28:54.268Z,71.01
2022-07-29T03:31:57.853Z,70.95
2022-07-29T03:35:00.794Z,71.18
2022-07-29T03:38:03.851Z,71.34
2022-07-29T03:41:08.982Z,71.07
2022-07-29T03:44:12.451Z,71.16
2022-07-29T03:47:16.446Z,71.31
2022-07-29T03:50:21.978Z,71.02
2022-07-29T03:53:24.706Z,70.85
2022-07-29T03:56:29.235Z,70.89
2022-07-29T03:59:33.890Z,70.85
2022-07-29T04:02:37.488Z,70.88
2022-07-29T04:05:40.495Z,70.70
2022-07-29T04:08:43.397Z,70.35
2022-07-29T04:12:01.447Z,70.27
2022-07-29T04:15:06.729Z,70.06
2022-07-29T04:18:09.564Z,69.74
2022-07-29T04:21:12.162Z,69.54
2022-07-29T04:24:16.332Z,69.37
2022-07-29T04:27:19.172Z,68.94
2022-07-29T04:30:24.010Z,67.83
2022-07-29T04:33:27.158Z,66.73
2022-07-29T04:36:30.259Z,65.59
2022-07-29T04:39:32.768Z,64.66
2022-07-29T04:42:35.558Z,64.01
2022-07-29T04:45:49.189Z,62.97
2022-07-29T04:48:52.159Z,62.64
2022-07-29T04:51:54.889Z,62.49
2022-07-29T04:54:57.803Z,62.98
2022-07-29T04:58:00.358Z,63.82
2022-07-29T05:01:04.690Z,63.68
2022-07-29T05:04:07.228Z,63.73
2022-07-29T05:07:10.056Z,63.75
2022-07-29T05:10:12.805Z,63.07
2022-07-29T05:13:15.602Z,63.28
2022-07-29T05:16:18.171Z,63.26
2022-07-29T05:19:21.022Z,63.65
2022-07-29T05:22:24.145Z,63.57
2022-07-29T05:25:40.839Z,63.45
2022-07-29T05:28:47.132Z,62.89
2022-07-29T05:31:49.999Z,61.77
2022-07-29T05:34:52.550Z,60.42
2022-07-29T05:37:55.389Z,59.85
2022-07-29T05:40:59.758Z,59.57
2022-07-29T05:44:03.205Z,60.07
2022-07-29T05:47:06.006Z,60.06
2022-07-29T05:50:09.714Z,59.95
2022-07-29T05:53:19.179Z,60.20
2022-07-29T05:56:23.462Z,59.92
2022-07-29T05:59:30.098Z,59.88
2022-07-29T06:02:33.202Z,59.68
2022-07-29T06:05:36.106Z,59.13
2022-07-29T06:08:38.899Z,59.03
2022-07-29T06:11:42.633Z,58.50
2022-07-29T06:14:45.154Z,58.26
2022-07-29T06:17:59.371Z,57.83
2022-07-29T06:21:09.664Z,57.87
2022-07-29T06:24:14.014Z,57.47
2022-07-29T06:27:17.369Z,57.34
2022-07-29T06:30:20.333Z,57.04
2022-07-29T06:33:22.890Z,56.58
2022-07-29T06:36:25.941Z,56.11
2022-07-29T06:39:29.068Z,55.39
2022-07-29T06:42:32.128Z,55.93
2022-07-29T06:45:37.699Z,55.65
2022-07-29T06:48:43.224Z,54.95
2022-07-29T06:51:45.772Z,54.24
2022-07-29T06:54:49.344Z,53.25
2022-07-29T06:57:52.442Z,52.24
2022-07-29T07:00:55.926Z,51.51
2022-07-29T07:03:58.574Z,50.57
2022-07-29T07:07:01.393Z,49.50
2022-07-29T07:10:04.581Z,50.01
2022-07-29T07:13:07.759Z,48.96
2022-07-29T07:16:10.384Z,48.05
2022-07-29T07:19:14.187Z,47.98
2022-07-29T07:22:16.811Z,47.98
2022-07-29T07:25:19.628Z,47.18
2022-07-29T07:28:24.991Z,45.16
2022-07-29T07:31:28.133Z,43.23
2022-07-29T07:34:31.208Z,42.34
2022-07-29T07:37:34.579Z,40.62
2022-07-29T07:40:37.219Z,39.42
2022-07-29T07:43:40.111Z,37.61
2022-07-29T07:46:42.692Z,34.80
2022-07-29T07:49:46.037Z,34.56
2022-07-29T07:52:50.366Z,34.58
2022-07-29T07:56:10.049Z,32.57
2022-07-29T07:59:13.479Z,33.58
2022-07-29T08:02:16.384Z,32.70
2022-07-29T08:05:19.344Z,32.53
2022-07-29T08:08:22.229Z,32.20
2022-07-29T08:11:25.109Z,31.56
2022-07-29T08:14:27.643Z,29.34
2022-07-29T08:17:30.544Z,30.28
2022-07-29T08:20:39.384Z,28.73
2022-07-29T08:23:52.799Z,26.57
2022-07-29T08:27:00.548Z,26.97
2022-07-29T08:30:03.730Z,25.68
2022-07-29T08:33:06.443Z,25.07
2022-07-29T08:36:09.910Z,25.97
2022-07-29T08:39:12.511Z,23.56
2022-07-29T08:42:17.727Z,26.01
2022-07-29T08:45:21.518Z,26.00
2022-07-29T08:48:24.862Z,24.03
2022-07-29T08:51:27.733Z,25.39
2022-07-29T08:54:30.748Z,26.02
2022-07-29T08:57:35.016Z,26.70
2022-07-29T09:00:44.254Z,28.27
2022-07-29T09:03:47.905Z,28.13
2022-07-29T09:06:52.691Z,27.33
2022-07-29T09:09:55.746Z,24.45
2022-07-29T09:12:59.233Z,25.21
2022-07-29T09:16:07.035Z,23.95
2022-07-29T09:19:23.224Z,24.64
2022-07-29T09:22:32.965Z,22.79
2022-07-29T09:25:40.360Z,22.67
2022-07-29T09:28:43.522Z,20.89
2022-07-29T09:31:53.523Z,22.20
2022-07-29T09:35:15.058Z,21.54
2022-07-29T09:38:17.908Z,21.21
2022-07-29T09:41:20.464Z,20.74
2022-07-29T09:44:24.005Z,22.81
2022-07-29T09:47:41.947Z,21.64
2022-07-29T09:50:47.682Z,21.60
2022-07-29T09:53:51.402Z,20.59
2022-07-29T09:56:56.968Z,20.85
2022-07-29T10:00:02.254Z,20.02
2022-07-29T10:03:15.540Z,21.12
2022-07-29T10:06:18.341Z,23.30
2022-07-29T10:09:22.297Z,26.46
2022-07-29T10:12:25.722Z,24.73
2022-07-29T10:15:31.101Z,26.22
2022-07-29T10:18:34.665Z,27.87
2022-07-29T10:21:38.867Z,26.57
2022-07-29T10:24:41.661Z,22.27
2022-07-29T10:27:45.746Z,21.21
2022-07-29T10:30:51.373Z,21.32
2022-07-29T10:34:13.286Z,22.88
2022-07-29T10:37:22.000Z,24.10
2022-07-29T10:40:59.975Z,25.06
2022-07-29T10:44:06.147Z,27.43
2022-07-29T10:47:18.065Z,25.88
2022-07-29T10:50:22.846Z,25.09
2022-07-29T10:53:26.302Z,25.02
2022-07-29T10:56:37.193Z,25.65
2022-07-29T10:59:41.975Z,26.84
2022-07-29T11:02:49.934Z,28.19
2022-07-29T11:06:11.416Z,27.14
2022-07-29T11:09:20.379Z,27.23
2022-07-29T11:12:37.803Z,27.26
2022-07-29T11:15:55.438Z,27.47
2022-07-29T11:19:13.507Z,25.70
2022-07-29T11:22:36.789Z,27.39
2022-07-29T11:25:52.376Z,24.86
2022-07-29T11:29:02.335Z,25.84
2022-07-29T11:32:15.774Z,27.44
2022-07-29T11:35:38.112Z,27.97
2022-07-29T11:38:42.712Z,28.19
2022-07-29T11:41:45.788Z,26.20
2022-07-29T11:45:08.393Z,26.04
2022-07-29T11:48:27.797Z,27.15
2022-07-29T11:51:33.250Z,25.47
2022-07-29T12:01:25.256Z,24.71
2022-07-29T12:04:31.179Z,23.68
2022-07-29T12:07:35.607Z,23.59
2022-07-29T12:10:39.723Z,23.00
2022-07-29T12:13:42.441Z,24.49
2022-07-29T12:16:45.314Z,26.08
2022-07-29T12:19:48.005Z,27.16
2022-07-29T12:22:54.851Z,27.24
2022-07-29T12:25:59.391Z,27.49
2022-07-29T12:29:03.334Z,27.39
2022-07-29T12:32:14.490Z,26.76
2022-07-29T12:35:22.504Z,27.44
2022-07-29T12:38:25.701Z,26.39
2022-07-29T12:41:30.069Z,26.72
2022-07-29T12:44:58.973Z,25.73
2022-07-29T12:48:01.754Z,26.55
2022-07-29T12:51:06.986Z,26.75
2022-07-29T12:54:16.418Z,27.23
2022-07-29T12:57:20.369Z,26.55
2022-07-29T13:00:25.045Z,27.63
2022-07-29T13:03:27.816Z,27.44
2022-07-29T13:06:37.955Z,28.02
2022-07-29T13:09:42.752Z,28.16
2022-07-29T13:13:11.522Z,28.90
2022-07-29T13:16:14.068Z,28.67
2022-07-29T13:19:17.186Z,28.86
2022-07-29T13:22:24.264Z,28.95
2022-07-29T13:25:32.697Z,28.61
2022-07-29T13:28:35.343Z,29.31
2022-07-29T13:31:38.166Z,29.55
2022-07-29T13:34:41.759Z,29.20
2022-07-29T13:37:44.709Z,28.88
2022-07-29T13:40:47.386Z,28.94
2022-07-29T13:43:50.248Z,28.87
2022-07-29T13:46:52.787Z,28.56
2022-07-29T13:49:56.398Z,29.15
2022-07-29T13:52:58.901Z,29.60
2022-07-29T13:56:01.726Z,29.92
2022-07-29T13:59:04.327Z,30.09
2022-07-29T14:02:07.659Z,30.33
2022-07-29T14:05:13.401Z,30.17
2022-07-29T14:08:16.226Z,29.86
2022-07-29T14:11:19.174Z,30.05
2022-07-29T14:14:21.880Z,30.10
2022-07-29T14:17:24.720Z,30.46
2022-07-29T14:20:30.925Z,30.73
2022-07-29T14:23:33.720Z,30.70
2022-07-29T14:26:36.377Z,30.31
2022-07-29T14:29:39.411Z,30.39
2022-07-29T14:32:42.044Z,30.89
2022-07-29T14:35:45.941Z,30.67
2022-07-29T14:38:48.562Z,30.83
2022-07-29T14:41:52.167Z,30.68
2022-07-29T14:44:55.074Z,30.81
2022-07-29T14:47:58.349Z,31.20
2022-07-29T14:51:04.529Z,31.12
2022-07-29T14:54:07.924Z,30.93
2022-07-29T14:57:10.494Z,31.85
2022-07-29T15:00:13.633Z,31.44
2022-07-29T15:03:24.186Z,31.64
2022-07-29T15:06:27.823Z,31.72
2022-07-29T15:09:30.343Z,33.64
2022-07-29T15:12:34.088Z,35.93
2022-07-29T15:15:36.821Z,39.00
2022-07-29T15:18:39.762Z,42.32
2022-07-29T15:21:48.813Z,44.01
2022-07-29T15:24:51.913Z,44.86
2022-07-29T15:27:56.663Z,44.74
2022-07-29T15:31:03.576Z,46.41
2022-07-29T15:34:06.536Z,49.19
2022-07-29T15:37:09.425Z,52.73
2022-07-29T15:40:12.060Z,54.26
2022-07-29T15:43:15.055Z,61.02
2022-07-29T15:46:37.698Z,67.20
2022-07-29T15:49:46.456Z,69.02
2022-07-29T15:52:51.936Z,69.44
2022-07-29T15:55:54.773Z,68.23
2022-07-29T15:58:57.723Z,67.69
2022-07-29T16:02:01.022Z,66.83
2022-07-29T16:05:04.174Z,66.17
2022-07-29T16:08:11.941Z,65.68
2022-07-29T16:11:14.793Z,64.73
2022-07-29T16:14:18.409Z,64.37
2022-07-29T16:17:21.367Z,64.33
2022-07-29T16:20:24.045Z,63.78
2022-07-29T16:23:26.837Z,63.96
2022-07-29T16:26:29.370Z,63.95
2022-07-29T16:29:32.517Z,64.14
2022-07-29T16:32:35.321Z,64.65
2022-07-29T16:35:40.393Z,65.02
2022-07-29T16:38:47.101Z,64.88
2022-07-29T16:41:50.397Z,65.44
2022-07-29T16:44:52.997Z,65.00
2022-07-29T16:48:00.171Z,64.62
2022-07-29T16:51:04.643Z,64.46
2022-07-29T16:54:08.758Z,64.96
2022-07-29T16:57:11.902Z,64.69
2022-07-29T17:00:16.660Z,64.65
2022-07-29T17:03:19.175Z,64.31
2022-07-29T17:06:21.963Z,64.62
2022-07-29T17:09:25.009Z,64.04
2022-07-29T17:12:27.852Z,64.15
2022-07-29T17:15:30.693Z,64.33
2022-07-29T17:18:39.452Z,64.81
2022-07-29T17:21:46.250Z,64.86
2022-07-29T17:24:52.219Z,65.00
2022-07-29T17:28:00.601Z,65.14
2022-07-29T17:31:03.934Z,65.30
2022-07-29T17:34:07.478Z,65.64
2022-07-29T17:37:11.682Z,65.60
2022-07-29T17:40:14.267Z,66.07
2022-07-29T17:43:17.471Z,66.18
2022-07-29T17:46:22.194Z,66.13
2022-07-29T17:49:25.555Z,66.52
2022-07-29T17:52:28.089Z,66.43
2022-07-29T17:55:30.946Z,66.62
2022-07-29T17:58:34.119Z,67.00
2022-07-29T18:01:38.217Z,67.75
2022-07-29T18:04:41.045Z,69.21
2022-07-29T18:07:43.656Z,70.08
2022-07-29T18:10:47.126Z,71.29
2022-07-29T18:13:50.017Z,71.37
2022-07-29T18:16:52.914Z,71.92
2022-07-29T18:19:55.496Z,72.24
2022-07-29T18:22:58.399Z,73.34
2022-07-29T18:26:02.574Z,74.11
2022-07-29T18:29:05.499Z,74.93
2022-07-29T18:32:11.837Z,75.06
2022-07-29T18:35:14.647Z,76.05
2022-07-29T18:38:17.646Z,76.86
2022-07-29T18:41:20.525Z,77.99
2022-07-29T18:44:23.138Z,77.90
2022-07-29T18:47:32.263Z,78.03
2022-07-29T18:50:36.368Z,79.11
2022-07-29T18:53:39.229Z,79.36
2022-07-29T18:56:41.770Z,79.57
2022-07-29T18:59:44.545Z,79.72
2022-07-29T19:02:47.212Z,79.87
2022-07-29T19:05:50.244Z,79.57
2022-07-29T19:08:53.417Z,79.41
2022-07-29T19:11:59.658Z,79.63
2022-07-29T19:15:04.716Z,79.37
2022-07-29T19:18:07.653Z,79.48
2022-07-29T19:21:10.790Z,79.61
2022-07-29T19:24:15.797Z,79.13
2022-07-29T19:27:18.893Z,79.38
2022-07-29T19:30:21.961Z,79.57
2022-07-29T19:33:24.544Z,79.19
2022-07-29T19:36:27.440Z,79.10
2022-07-29T19:39:35.443Z,78.74
2022-07-29T19:42:38.503Z,78.57
2022-07-29T19:45:41.107Z,77.94
2022-07-29T19:48:44.629Z,77.24
2022-07-29T19:51:47.314Z,76.96
2022-07-29T19:54:50.195Z,76.62
2022-07-29T19:57:53.300Z,76.24
2022-07-29T20:00:56.160Z,76.02
2022-07-29T20:03:59.045Z,75.50
2022-07-29T20:07:02.152Z,75.24
2022-07-29T20:10:06.975Z,74.83
2022-07-29T20:13:09.617Z,74.50
2022-07-29T20:16:12.457Z,74.55
2022-07-29T20:19:15.477Z,74.67
2022-07-29T20:22:21.146Z,74.51
2022-07-29T20:25:24.215Z,74.35
2022-07-29T20:28:27.099Z,74.27
2022-07-29T20:31:30.712Z,73.63
2022-07-29T20:34:33.663Z,72.31
2022-07-29T20:37:55.749Z,72.35
2022-07-29T20:40:58.973Z,72.56
2022-07-29T20:44:02.271Z,72.19
2022-07-29T20:47:05.158Z,72.05
2022-07-29T20:50:09.969Z,71.75
2022-07-29T20:53:13.657Z,71.77
2022-07-29T20:56:16.170Z,72.15
2022-07-29T20:59:19.202Z,72.58
2022-07-29T21:02:21.782Z,72.45
2022-07-29T21:05:24.648Z,72.12
2022-07-29T21:08:27.641Z,72.04
2022-07-29T21:11:44.758Z,71.87
2022-07-29T21:14:51.793Z,72.01
2022-07-29T21:18:00.753Z,72.03
2022-07-29T21:21:05.085Z,72.43
2022-07-29T21:24:08.321Z,72.79
2022-07-29T21:27:32.826Z,72.49
2022-07-29T21:30:36.379Z,72.38
2022-07-29T21:33:40.997Z,72.79
2022-07-29T21:36:48.333Z,73.01
2022-07-29T21:39:51.406Z,73.10
2022-07-29T21:42:54.169Z,73.12
2022-07-29T21:45:57.524Z,73.63
2022-07-29T21:49:00.544Z,74.50
2022-07-29T21:52:03.993Z,74.78
2022-07-29T21:55:07.456Z,75.12
2022-07-29T21:58:15.577Z,75.57
2022-07-29T22:01:18.488Z,75.73
2022-07-29T22:04:21.519Z,76.43
2022-07-29T22:07:24.041Z,77.12
2022-07-29T22:10:28.866Z,77.46
2022-07-29T22:13:36.966Z,77.15
2022-07-29T22:16:39.928Z,77.13
2022-07-29T22:19:42.741Z,76.74
2022-07-29T22:22:45.906Z,76.93
2022-07-29T22:25:48.573Z,77.33
2022-07-29T22:28:51.393Z,77.46
2022-07-29T22:31:53.987Z,78.13
2022-07-29T22:34:56.783Z,79.26
2022-07-29T22:37:59.284Z,79.51
2022-07-29T22:41:03.358Z,79.25
2022-07-29T22:44:06.039Z,79.51
2022-07-29T22:47:08.826Z,79.68
2022-07-29T22:50:11.363Z,79.96
2022-07-29T22:53:14.297Z,80.27
2022-07-29T22:56:17.708Z,79.79
2022-07-29T22:59:20.572Z,80.23
2022-07-29T23:02:23.133Z,81.72
2022-07-29T23:05:26.267Z,81.07
2022-07-29T23:08:28.792Z,81.54
2022-07-29T23:11:31.898Z,80.96
2022-07-29T23:14:39.925Z,81.05
2022-07-29T23:17:42.761Z,81.71
2022-07-29T23:20:45.675Z,81.20
2022-07-29T23:23:49.133Z,81.23
2022-07-29T23:26:51.791Z,81.21
2022-07-29T23:29:54.557Z,81.05
2022-07-29T23:32:57.259Z,81.48
2022-07-29T23:36:00.019Z,81.55
2022-07-29T23:39:02.580Z,81.68
2022-07-29T23:42:05.468Z,81.46
2022-07-29T23:45:08.994Z,82.18
2022-07-29T23:48:11.970Z,82.37
2022-07-29T23:51:14.505Z,82.86
2022-07-29T23:54:17.375Z,83.22
2022-07-29T23:57:22.928Z,82.58
